Time;durP1;ratioP1;P1;durP2;ratioP2;P2;SDS_P1;SDS_P2;PMS_P1;PMS_P2;Temp;Humidity;BMP_temperature;BMP_pressure;BME280_temperature;BME280_humidity;BME280_pressure;Samples;Min_cycle;Max_cycle;Signal;HPM_P1;HPM_P2
2022/11/01 00:02:09;;;;;;;10.87;7.80;;;;;;;16.34;63.83;97447.97;5053115;28;20185;-73
2022/11/01 00:04:34;;;;;;;16.97;8.37;;;;;;;16.32;63.88;97445.50;5053202;28;20555;-73
2022/11/01 00:07:00;;;;;;;16.30;8.40;;;;;;;16.27;63.41;97442.59;5054138;28;20182;-72
2022/11/01 00:09:25;;;;;;;17.03;8.10;;;;;;;16.29;63.61;97448.53;5065056;28;20261;-72
2022/11/01 00:11:51;;;;;;;15.33;8.50;;;;;;;16.33;63.59;97431.28;5048751;28;20298;-72
2022/11/01 00:14:17;;;;;;;15.03;8.87;;;;;;;16.28;63.49;97426.56;5044496;28;20211;-72
2022/11/01 00:16:43;;;;;;;16.40;8.30;;;;;;;16.32;63.74;97429.66;5035520;28;20212;-72
2022/11/01 00:19:09;;;;;;;11.50;8.00;;;;;;;16.32;63.83;97427.00;5051194;28;20426;-72
2022/11/01 00:21:34;;;;;;;15.97;7.00;;;;;;;16.28;64.15;97417.78;5044256;28;20204;-72
2022/11/01 00:24:00;;;;;;;15.70;8.50;;;;;;;16.33;64.58;97419.88;5038274;28;20199;-71
2022/11/01 00:26:25;;;;;;;14.57;7.27;;;;;;;16.38;63.99;97433.38;5055850;28;20206;-72
2022/11/01 00:28:51;;;;;;;10.17;6.70;;;;;;;16.33;64.28;97428.66;5041341;28;20184;-72
2022/11/01 00:31:18;;;;;;;15.30;6.87;;;;;;;16.37;64.33;97435.22;5049617;28;20673;-72
2022/11/01 00:33:43;;;;;;;16.03;7.70;;;;;;;16.46;64.03;97429.81;5059100;28;20218;-72
2022/11/01 00:36:09;;;;;;;19.70;7.60;;;;;;;16.45;64.05;97436.13;5063391;28;20813;-73
2022/11/01 00:38:34;;;;;;;9.23;7.30;;;;;;;16.49;63.56;97434.75;5064399;28;20244;-71
2022/11/01 00:41:02;;;;;;;11.23;7.73;;;;;;;16.55;63.44;97445.41;5057200;28;20187;-74
2022/11/01 00:43:31;;;;;;;17.10;8.97;;;;;;;16.58;63.24;97436.28;5065790;28;20421;-73
2022/11/01 00:45:57;;;;;;;9.30;7.23;;;;;;;16.61;63.25;97433.28;5063518;28;20803;-74
2022/11/01 00:48:22;;;;;;;11.50;7.30;;;;;;;16.65;63.15;97437.16;5064091;28;20425;-73
2022/11/01 00:50:47;;;;;;;13.50;6.60;;;;;;;16.68;62.80;97436.81;5064446;28;20657;-74
2022/11/01 00:53:13;;;;;;;13.90;7.27;;;;;;;16.69;62.91;97438.44;5067356;28;20218;-72
2022/11/01 00:55:38;;;;;;;13.93;7.10;;;;;;;16.71;62.68;97438.25;5065837;28;20205;-74
2022/11/01 00:58:04;;;;;;;11.27;7.57;;;;;;;16.72;62.78;97440.72;5053383;28;20179;-72
2022/11/01 01:00:29;;;;;;;11.70;7.40;;;;;;;16.73;62.76;97446.81;5042131;28;20308;-75
2022/11/01 01:02:55;;;;;;;21.20;6.90;;;;;;;16.71;62.76;97432.97;5035656;28;20950;-74
2022/11/01 01:05:20;;;;;;;14.53;7.83;;;;;;;16.69;62.90;97438.44;5034915;28;20207;-74
2022/11/01 01:07:46;;;;;;;16.83;8.67;;;;;;;16.59;62.94;97444.03;5037091;28;20203;-70
2022/11/01 01:10:11;;;;;;;17.50;9.63;;;;;;;16.41;63.23;97448.88;5039837;28;20195;-72
2022/11/01 01:12:37;;;;;;;20.00;8.57;;;;;;;16.47;63.16;97442.03;5037544;28;20203;-72
2022/11/01 01:15:03;;;;;;;21.17;9.17;;;;;;;16.49;63.13;97430.25;5034143;28;20195;-71
2022/11/01 01:17:28;;;;;;;19.27;9.87;;;;;;;16.45;63.28;97439.56;5039418;28;20249;-71
2022/11/01 01:19:53;;;;;;;14.07;9.03;;;;;;;16.52;63.13;97437.00;5040654;28;20423;-72
2022/11/01 01:22:19;;;;;;;14.50;8.90;;;;;;;16.51;63.17;97432.72;5037352;28;20180;-72
2022/11/01 01:24:46;;;;;;;14.10;8.47;;;;;;;16.54;63.31;97429.72;5043490;28;20184;-71
2022/11/01 01:27:15;;;;;;;14.70;8.47;;;;;;;16.54;63.19;97417.31;5036240;28;20187;-72
2022/11/01 01:29:40;;;;;;;17.33;8.07;;;;;;;16.53;63.10;97430.72;5056090;28;20436;-71
2022/11/01 01:32:17;;;;;;;15.73;7.80;;;;;;;16.52;63.14;97421.13;5060217;28;20456;-72
2022/11/01 01:34:42;;;;;;;12.00;7.43;;;;;;;16.52;63.06;97423.78;5047503;28;20191;-72
2022/11/01 01:37:09;;;;;;;12.50;7.70;;;;;;;16.48;62.77;97411.94;5060196;28;20837;-71
2022/11/01 01:39:35;;;;;;;11.60;7.03;;;;;;;16.42;63.06;97422.25;5048801;28;20187;-72
2022/11/01 01:42:03;;;;;;;11.40;6.90;;;;;;;16.45;63.28;97421.03;5055421;28;20412;-72
2022/11/01 01:44:49;;;;;;;14.13;7.43;;;;;;;16.40;63.26;97421.59;5051907;28;20186;-71
2022/11/01 01:47:23;;;;;;;15.00;7.07;;;;;;;16.40;63.36;97421.59;5061253;28;20420;-72
2022/11/01 01:49:51;;;;;;;14.37;7.33;;;;;;;16.43;63.27;97423.09;5055515;28;20417;-72
2022/11/01 01:52:17;;;;;;;14.30;7.20;;;;;;;16.42;63.10;97419.59;5049198;28;20492;-71
2022/11/01 01:54:43;;;;;;;13.80;6.40;;;;;;;16.43;62.95;97413.31;5052406;28;20423;-71
2022/11/01 01:57:08;;;;;;;12.17;6.70;;;;;;;16.46;62.68;97411.31;5047829;28;20765;-72
2022/11/01 01:59:35;;;;;;;11.83;6.97;;;;;;;16.47;62.74;97420.88;5060250;28;20189;-72
2022/11/01 02:02:01;;;;;;;13.40;7.63;;;;;;;16.43;62.90;97426.53;5050752;28;20192;-71
2022/11/01 02:04:37;;;;;;;10.83;6.80;;;;;;;16.46;62.95;97427.19;5066771;28;20494;-71
2022/11/01 02:07:03;;;;;;;15.40;7.20;;;;;;;16.49;62.78;97429.47;5053306;28;20206;-73
2022/11/01 02:09:29;;;;;;;12.63;6.37;;;;;;;16.49;62.71;97424.97;5051351;28;20429;-72
2022/11/01 02:11:54;;;;;;;15.50;7.80;;;;;;;16.48;62.89;97427.81;5051207;28;20203;-72
2022/11/01 02:14:21;;;;;;;12.03;7.00;;;;;;;16.46;62.77;97427.19;5051622;28;20180;-73
2022/11/01 02:17:26;;;;;;;18.00;8.33;;;;;;;16.52;62.86;97423.78;5053377;28;20214;-71
2022/11/01 02:20:22;;;;;;;17.50;7.30;;;;;;;16.56;62.63;97420.59;5046025;28;20433;-73
2022/11/01 02:23:15;;;;;;;11.53;6.77;;;;;;;16.61;62.50;97414.75;5060015;28;20432;-72
2022/11/01 02:26:19;;;;;;;19.60;7.83;;;;;;;16.65;62.38;97415.19;5049185;28;20500;-72
2022/11/01 02:29:06;;;;;;;15.63;7.30;;;;;;;16.63;62.68;97423.31;5051956;28;20460;-73
2022/11/01 02:32:13;;;;;;;17.07;6.80;;;;;;;16.56;62.52;97425.06;5042006;28;20507;-73
2022/11/01 02:34:44;;;;;;;17.67;8.50;;;;;;;16.57;62.75;97421.41;5051158;28;20931;-72
2022/11/01 02:37:19;;;;;;;9.60;7.20;;;;;;;16.55;63.15;97410.19;5064039;28;20424;-72
2022/11/01 02:39:51;;;;;;;14.50;7.63;;;;;;;16.53;63.09;97418.31;5052906;28;20805;-71
2022/11/01 02:42:20;;;;;;;15.37;7.63;;;;;;;16.53;63.32;97417.47;5057038;28;20449;-70
2022/11/01 02:44:54;;;;;;;14.47;7.20;;;;;;;16.46;63.47;97427.19;5055396;28;20511;-71
2022/11/01 02:47:19;;;;;;;16.33;7.60;;;;;;;16.43;63.68;97439.75;5062787;28;20439;-70
2022/11/01 02:49:47;;;;;;;10.50;7.17;;;;;;;16.49;63.56;97429.47;5057690;28;20425;-71
2022/11/01 02:52:16;;;;;;;10.97;7.20;;;;;;;16.50;63.46;97436.38;5047280;28;20202;-72
2022/11/01 02:54:44;;;;;;;12.63;7.40;;;;;;;16.50;63.42;97436.38;5048824;28;20497;-73
2022/11/01 02:57:15;;;;;;;16.17;7.10;;;;;;;16.52;63.15;97435.19;5061123;28;20429;-72
2022/11/01 02:59:43;;;;;;;14.23;7.00;;;;;;;16.54;62.89;97432.34;5053412;28;20427;-72
2022/11/01 03:02:13;;;;;;;9.77;6.90;;;;;;;16.54;63.03;97427.06;5062342;28;20413;-73
2022/11/01 03:04:38;;;;;;;14.63;6.80;;;;;;;16.54;62.83;97425.25;5056181;28;20446;-73
2022/11/01 03:07:06;;;;;;;11.33;6.40;;;;;;;16.55;62.74;97432.19;5059313;28;20527;-73
2022/11/01 03:09:33;;;;;;;15.23;6.43;;;;;;;16.57;62.48;97432.00;5060232;28;20186;-72
2022/11/01 03:12:24;;;;;;;13.33;6.97;;;;;;;16.57;62.51;97432.78;5049473;28;20470;-72
2022/11/01 03:15:19;;;;;;;11.60;6.00;;;;;;;16.65;62.22;97431.88;5045133;28;20930;-72
2022/11/01 03:18:24;;;;;;;13.00;5.77;;;;;;;16.68;61.65;97434.16;5043503;28;20791;-72
2022/11/01 03:20:58;;;;;;;9.77;6.00;;;;;;;16.72;61.40;97430.13;5060876;28;20432;-71
2022/11/01 03:23:37;;;;;;;14.97;5.40;;;;;;;16.72;61.19;97440.72;5068935;28;20432;-72
2022/11/01 03:26:06;;;;;;;16.33;5.30;;;;;;;16.80;61.19;97446.91;5056778;28;20437;-72
2022/11/01 03:28:36;;;;;;;11.10;5.23;;;;;;;16.86;60.25;97443.53;5051594;28;20428;-72
2022/11/01 03:31:06;;;;;;;12.33;4.73;;;;;;;16.88;60.05;97454.75;5061167;28;20426;-72
2022/11/01 03:33:39;;;;;;;8.70;4.80;;;;;;;16.88;59.80;97457.41;5054632;28;20460;-71
2022/11/01 03:36:10;;;;;;;15.10;6.50;;;;;;;16.97;59.59;97453.66;5065674;28;20444;-71
2022/11/01 03:38:38;;;;;;;12.50;4.80;;;;;;;17.02;59.44;97467.13;5045410;28;20416;-72
2022/11/01 03:41:08;;;;;;;9.10;5.00;;;;;;;17.00;59.51;97463.88;5063417;28;20480;-71
2022/11/01 03:43:34;;;;;;;9.10;4.43;;;;;;;16.98;59.48;97471.19;5048338;28;20424;-72
2022/11/01 03:46:00;;;;;;;9.53;5.00;;;;;;;17.02;59.43;97477.72;5057120;28;20891;-71
2022/11/01 03:48:25;;;;;;;13.07;4.67;;;;;;;17.04;59.28;97470.41;5049529;28;20425;-71
2022/11/01 03:50:52;;;;;;;10.87;4.60;;;;;;;17.10;59.55;97479.44;5050871;28;20708;-71
2022/11/01 03:53:18;;;;;;;7.90;4.57;;;;;;;17.12;59.26;97479.28;5056436;28;20301;-72
2022/11/01 03:55:43;;;;;;;10.13;3.93;;;;;;;17.14;59.29;97485.19;5058122;28;20456;-72
2022/11/01 03:58:09;;;;;;;10.93;4.33;;;;;;;17.17;58.90;97490.09;5055363;28;20449;-72
2022/11/01 04:00:45;;;;;;;10.70;4.43;;;;;;;17.20;58.88;97482.59;5071008;28;20269;-71
2022/11/01 04:03:11;;;;;;;13.37;4.00;;;;;;;17.27;58.41;97492.47;5058117;28;20175;-71
2022/11/01 04:05:38;;;;;;;15.47;3.70;;;;;;;17.38;58.31;97501.75;5063738;28;20449;-72
2022/11/01 04:08:04;;;;;;;10.70;3.57;;;;;;;17.59;57.83;97501.75;5062943;28;21188;-72
2022/11/01 04:10:30;;;;;;;6.47;3.27;;;;;;;17.72;57.37;97502.88;5048343;28;20416;-72
2022/11/01 04:12:56;;;;;;;6.30;2.97;;;;;;;17.85;57.11;97505.63;5068158;28;20457;-71
2022/11/01 04:21:03;;;;;;;10.30;3.40;;;;;;;18.11;56.29;97497.06;5060430;28;20424;-73
2022/11/01 04:23:29;;;;;;;13.17;4.00;;;;;;;18.12;56.07;97500.56;5062938;28;20412;-72
2022/11/01 04:25:54;;;;;;;9.87;3.53;;;;;;;18.15;56.06;97497.50;5067793;28;20951;-73
2022/11/01 04:28:20;;;;;;;10.23;4.47;;;;;;;18.17;55.86;97506.09;5050398;28;20175;-73
2022/11/01 04:30:46;;;;;;;5.97;3.23;;;;;;;18.20;55.78;97499.59;5065937;28;20598;-72
2022/11/01 04:33:11;;;;;;;10.40;3.97;;;;;;;18.21;55.57;97507.34;5064899;28;20525;-72
2022/11/01 04:35:37;;;;;;;11.43;3.53;;;;;;;18.21;55.50;97523.25;5060302;28;20681;-73
2022/11/01 04:38:03;;;;;;;7.20;3.13;;;;;;;18.24;55.42;97520.22;5064512;28;20269;-72
2022/11/01 04:40:28;;;;;;;17.43;3.90;;;;;;;18.26;55.35;97520.88;5056855;28;20192;-72
2022/11/01 04:42:54;;;;;;;6.83;3.10;;;;;;;18.21;55.30;97528.56;5049651;28;20518;-73
2022/11/01 04:45:19;;;;;;;8.53;3.30;;;;;;;18.26;55.40;97528.81;5052696;28;20212;-73
2022/11/01 04:47:51;;;;;;;8.90;3.60;;;;;;;18.20;55.63;97542.84;5054000;28;20246;-72
2022/11/01 04:50:19;;;;;;;7.37;3.90;;;;;;;18.25;55.58;97539.59;5037606;28;20258;-72
2022/11/01 04:52:44;;;;;;;8.87;4.20;;;;;;;18.24;55.83;97546.75;5062676;28;20457;-74
2022/11/01 04:55:10;;;;;;;14.67;3.67;;;;;;;18.26;55.68;97558.00;5053476;28;20469;-72
2022/11/01 04:57:41;;;;;;;5.57;3.13;;;;;;;18.25;55.79;97551.06;5049527;28;20650;-73
2022/11/01 05:00:12;;;;;;;10.57;3.27;;;;;;;18.25;55.68;97551.06;5055659;28;20559;-72
2022/11/01 05:02:38;;;;;;;9.47;3.43;;;;;;;18.23;55.83;97558.38;5055062;28;20414;-73
2022/11/01 05:05:05;;;;;;;12.73;5.13;;;;;;;18.29;55.83;97563.91;5069258;28;20456;-72
2022/11/01 05:07:31;;;;;;;14.40;3.50;;;;;;;18.34;55.85;97558.84;5060714;28;20428;-74
2022/11/01 05:09:56;;;;;;;6.70;3.10;;;;;;;18.35;55.89;97574.56;5027254;28;21132;-72
2022/11/01 05:12:22;;;;;;;8.63;2.53;;;;;;;18.34;56.01;97585.38;5062565;28;20210;-72
2022/11/01 05:14:47;;;;;;;8.63;2.80;;;;;;;18.40;55.82;97590.75;5053894;28;20229;-71
2022/11/01 05:17:12;;;;;;;6.30;2.57;;;;;;;18.35;56.10;97595.00;5054219;28;20236;-73
2022/11/01 05:19:38;;;;;;;6.47;3.07;;;;;;;18.38;56.06;97598.06;5062371;28;20183;-73
2022/11/01 05:22:03;;;;;;;9.03;2.63;;;;;;;18.40;56.32;97587.25;5060254;28;20186;-72
2022/11/01 05:24:29;;;;;;;10.13;2.83;;;;;;;18.43;56.02;97584.22;5049207;28;20556;-73
2022/11/01 05:26:54;;;;;;;5.33;2.93;;;;;;;18.44;56.26;97580.56;5060189;28;20206;-73
2022/11/01 05:29:20;;;;;;;9.30;2.30;;;;;;;18.46;56.45;97573.22;5068742;28;20194;-73
2022/11/01 05:31:45;;;;;;;4.87;2.20;;;;;;;18.40;56.99;97579.28;5062732;28;20650;-73
2022/11/01 05:34:11;;;;;;;5.90;2.33;;;;;;;18.51;56.92;97573.47;5061778;28;20628;-73
2022/11/01 05:36:36;;;;;;;4.10;1.90;;;;;;;18.57;56.99;97575.34;5054834;28;20210;-73
2022/11/01 05:39:02;;;;;;;4.23;1.83;;;;;;;18.59;57.10;97567.16;5060601;28;20193;-72
2022/11/01 05:41:28;;;;;;;5.57;2.07;;;;;;;18.56;57.43;97573.69;5061604;28;20239;-71
2022/11/01 05:43:53;;;;;;;7.63;1.93;;;;;;;18.59;57.82;97572.47;5059479;28;20179;-72
2022/11/01 05:46:18;;;;;;;5.33;2.20;;;;;;;18.61;57.79;97575.75;5060225;28;20720;-72
2022/11/01 05:48:44;;;;;;;6.13;2.10;;;;;;;18.53;58.87;97599.81;5057370;28;20658;-74
2022/11/01 05:51:09;;;;;;;6.27;2.00;;;;;;;18.55;59.20;97587.97;5056939;28;20209;-73
2022/11/01 05:53:35;;;;;;;3.93;1.90;;;;;;;18.54;59.29;97581.03;5053672;28;20202;-72
2022/11/01 05:56:00;;;;;;;4.13;1.90;;;;;;;18.45;60.33;97581.41;5060212;28;20697;-71
2022/11/01 05:58:26;;;;;;;5.77;2.10;;;;;;;18.47;60.53;97579.34;5055309;28;20763;-72
2022/11/01 06:00:59;;;;;;;5.60;1.77;;;;;;;18.44;61.08;97585.88;5056002;28;20182;-73
2022/11/01 06:03:24;;;;;;;3.40;1.60;;;;;;;18.44;61.28;97567.28;5045581;28;20278;-73
2022/11/01 06:05:49;;;;;;;2.40;1.53;;;;;;;18.41;61.51;97580.94;5058769;28;20544;-72
2022/11/01 06:08:15;;;;;;;4.57;1.60;;;;;;;18.26;62.59;97599.59;5065547;28;20183;-73
2022/11/01 06:10:40;;;;;;;3.20;1.70;;;;;;;18.32;62.42;97598.03;5067559;28;20553;-71
2022/11/01 06:13:06;;;;;;;3.30;1.83;;;;;;;18.17;63.08;97584.84;5049719;28;20579;-73
2022/11/01 06:15:31;;;;;;;7.77;2.37;;;;;;;18.25;62.89;97587.34;5064754;28;20220;-74
2022/11/01 06:17:57;;;;;;;1.97;1.30;;;;;;;18.23;62.97;97587.56;5061609;28;20183;-73
2022/11/01 06:20:26;;;;;;;2.03;1.50;;;;;;;18.16;63.35;97589.31;5047104;28;20187;-74
2022/11/01 06:22:52;;;;;;;3.43;1.70;;;;;;;18.15;63.47;97582.38;5060159;28;20265;-74
2022/11/01 06:25:17;;;;;;;5.53;1.37;;;;;;;18.11;63.83;97586.44;5055839;28;20811;-73
2022/11/01 06:27:43;;;;;;;2.30;1.60;;;;;;;18.00;64.13;97573.69;5065829;28;20198;-72
2022/11/01 06:30:09;;;;;;;1.70;1.00;;;;;;;17.89;64.63;97583.78;5063519;28;20270;-73
2022/11/01 06:32:34;;;;;;;3.60;1.53;;;;;;;18.03;64.16;97578.59;5057030;28;20688;-72
2022/11/01 06:35:00;;;;;;;2.37;1.07;;;;;;;18.11;64.27;97583.78;5062352;28;20456;-72
2022/11/01 06:37:25;;;;;;;1.60;0.90;;;;;;;18.15;63.80;97603.59;5059470;28;20698;-72
2022/11/01 06:39:50;;;;;;;2.07;1.27;;;;;;;17.94;64.73;97630.94;5056889;28;20628;-71
2022/11/01 06:42:16;;;;;;;2.60;1.13;;;;;;;17.96;64.67;97653.59;5053772;28;20179;-72
2022/11/01 06:44:41;;;;;;;1.50;1.03;;;;;;;18.02;64.36;97652.03;5057609;28;20178;-72
2022/11/01 06:47:07;;;;;;;1.63;1.00;;;;;;;18.09;64.10;97654.75;5061057;28;20206;-72
2022/11/01 06:49:32;;;;;;;1.63;1.20;;;;;;;18.11;64.45;97666.00;5049174;28;20243;-73
2022/11/01 06:51:58;;;;;;;2.70;1.30;;;;;;;18.11;64.54;97666.81;5066340;28;20210;-72
2022/11/01 06:54:24;;;;;;;2.77;2.00;;;;;;;18.14;64.42;97660.31;5044815;28;20187;-73
2022/11/01 06:56:49;;;;;;;2.57;1.30;;;;;;;18.15;64.48;97666.44;5057382;28;20213;-73
2022/11/01 06:59:15;;;;;;;2.33;1.50;;;;;;;18.15;64.46;97664.59;5050362;28;20506;-72
2022/11/01 07:01:42;;;;;;;1.83;1.57;;;;;;;18.15;64.51;97669.91;5061347;28;20228;-72
2022/11/01 07:04:07;;;;;;;2.00;1.40;;;;;;;18.07;64.98;97662.06;5039288;28;20298;-72
2022/11/01 07:06:33;;;;;;;1.43;1.10;;;;;;;18.10;64.95;97670.47;5073387;28;20449;-72
2022/11/01 07:08:59;;;;;;;2.43;1.40;;;;;;;18.12;64.78;97667.66;5044424;28;20184;-73
2022/11/01 07:11:24;;;;;;;4.40;1.30;;;;;;;18.13;64.89;97658.69;5047467;28;20187;-73
2022/11/01 07:13:49;;;;;;;2.87;1.23;;;;;;;18.16;64.67;97663.59;5049517;28;20215;-72
2022/11/01 07:16:15;;;;;;;2.07;1.33;;;;;;;18.16;64.49;97658.28;5038791;28;20195;-72
2022/11/01 07:18:41;;;;;;;1.00;0.90;;;;;;;18.12;64.51;97654.38;5059218;28;20619;-73
2022/11/01 07:21:06;;;;;;;1.40;1.00;;;;;;;18.18;64.19;97661.56;5039994;28;20184;-72
2022/11/01 07:23:32;;;;;;;2.70;1.10;;;;;;;18.18;64.12;97660.75;5064418;28;20210;-72
2022/11/01 07:25:57;;;;;;;2.10;1.03;;;;;;;18.20;64.16;97670.16;5045963;28;20200;-71
2022/11/01 07:28:23;;;;;;;2.60;0.90;;;;;;;18.18;64.31;97668.72;5052930;28;20699;-72
2022/11/01 07:30:49;;;;;;;4.00;1.07;;;;;;;18.13;64.47;97661.34;5050211;28;20185;-73
2022/11/01 07:33:15;;;;;;;2.30;0.90;;;;;;;18.17;64.26;97665.22;5038233;28;20298;-72
2022/11/01 07:35:40;;;;;;;1.80;0.97;;;;;;;18.20;64.11;97659.56;5058316;28;20547;-71
2022/11/01 07:38:06;;;;;;;1.30;0.90;;;;;;;18.25;64.05;97662.47;5038377;28;20578;-72
2022/11/01 07:40:31;;;;;;;1.67;1.23;;;;;;;18.30;63.79;97658.41;5044193;28;20234;-72
2022/11/01 07:42:58;;;;;;;3.00;1.20;;;;;;;18.30;63.84;97656.59;5044263;28;20180;-71
2022/11/01 07:45:25;;;;;;;1.50;0.90;;;;;;;18.31;63.75;97668.84;5053091;28;20210;-72
2022/11/01 07:47:51;;;;;;;1.63;1.00;;;;;;;18.34;63.39;97673.75;5050472;28;20421;-70
2022/11/01 07:50:17;;;;;;;2.30;0.93;;;;;;;18.38;63.08;97682.97;5038452;28;20982;-72
2022/11/01 07:52:42;;;;;;;0.93;0.77;;;;;;;18.44;63.02;97685.88;5041748;28;20203;-72
2022/11/01 07:55:08;;;;;;;2.93;1.10;;;;;;;18.36;62.91;97684.19;5040492;28;20863;-71
2022/11/01 07:57:38;;;;;;;1.93;0.93;;;;;;;18.42;62.92;97686.91;5059220;28;20237;-72
2022/11/01 08:00:04;;;;;;;1.53;0.87;;;;;;;18.47;62.79;97699.59;5063004;28;20187;-73
2022/11/01 08:02:29;;;;;;;3.33;1.00;;;;;;;18.48;62.54;97693.28;5056980;28;20421;-72
2022/11/01 08:04:54;;;;;;;0.90;0.70;;;;;;;18.55;62.45;97688.84;5064937;28;20520;-72
2022/11/01 08:07:20;;;;;;;1.93;1.10;;;;;;;18.57;62.52;97702.72;5065556;28;20270;-71
2022/11/01 08:09:46;;;;;;;2.13;0.90;;;;;;;18.59;62.30;97715.81;5064297;28;20261;-72
2022/11/01 08:12:11;;;;;;;4.20;0.97;;;;;;;18.65;62.28;97722.22;5067895;28;20213;-72
2022/11/01 08:14:37;;;;;;;1.40;1.00;;;;;;;18.68;62.14;97721.81;5045945;28;20614;-72
2022/11/01 08:17:02;;;;;;;1.43;0.83;;;;;;;18.75;62.03;97717.38;5048526;28;20738;-73
2022/11/01 08:19:28;;;;;;;0.90;0.80;;;;;;;18.78;61.92;97724.94;5059686;28;20205;-72
2022/11/01 08:21:56;;;;;;;1.33;1.10;;;;;;;18.85;61.87;97735.63;5064796;28;20186;-71
2022/11/01 08:24:22;;;;;;;6.23;0.87;;;;;;;18.89;61.80;97734.22;5063751;28;20178;-73
2022/11/01 08:26:47;;;;;;;1.20;0.90;;;;;;;18.96;61.59;97734.31;5064136;28;21015;-73
2022/11/01 08:29:13;;;;;;;2.23;1.10;;;;;;;18.99;61.36;97736.59;5058267;28;20642;-73
2022/11/01 08:31:40;;;;;;;2.30;0.83;;;;;;;18.96;61.34;97743.13;5052453;28;20188;-72
2022/11/01 08:34:05;;;;;;;1.60;0.90;;;;;;;19.01;60.89;97750.50;5057809;28;20775;-72
2022/11/01 08:36:31;;;;;;;1.10;0.80;;;;;;;19.10;60.91;97743.19;5047459;28;20533;-72
2022/11/01 08:38:57;;;;;;;1.17;0.77;;;;;;;19.16;60.59;97753.84;5057373;28;20218;-71
2022/11/01 08:41:22;;;;;;;1.13;0.97;;;;;;;19.21;60.59;97749.81;5050744;28;20518;-73
2022/11/01 08:43:48;;;;;;;1.20;1.10;;;;;;;19.25;60.71;97746.56;5046898;28;20226;-73
2022/11/01 08:46:13;;;;;;;1.30;0.83;;;;;;;19.24;60.10;97749.44;5060343;28;20202;-73
2022/11/01 08:48:39;;;;;;;1.37;0.90;;;;;;;19.30;59.59;97751.28;5049967;28;20187;-77
2022/11/01 08:51:04;;;;;;;1.33;0.90;;;;;;;19.34;59.33;97749.88;5059490;28;20213;-71
2022/11/01 08:53:29;;;;;;;1.10;0.97;;;;;;;19.34;59.33;97747.22;5053226;28;20776;-73
2022/11/01 08:55:56;;;;;;;1.37;0.90;;;;;;;19.36;59.30;97755.84;5057015;28;20285;-72
2022/11/01 08:58:21;;;;;;;1.10;0.73;;;;;;;19.27;58.74;97755.16;5059302;28;20582;-72
2022/11/01 09:00:47;;;;;;;1.47;1.10;;;;;;;19.34;58.74;97753.34;5062479;28;20437;-73
2022/11/01 09:03:13;;;;;;;1.10;1.00;;;;;;;19.40;58.65;97758.91;5061018;28;20195;-71
2022/11/01 09:05:39;;;;;;;1.30;0.67;;;;;;;19.28;58.98;97758.66;5069070;28;20210;-71
2022/11/01 09:08:04;;;;;;;1.10;1.00;;;;;;;19.25;59.18;97751.06;5065691;28;20472;-70
2022/11/01 09:10:31;;;;;;;1.53;0.80;;;;;;;19.31;58.95;97756.41;5069697;28;20194;-73
2022/11/01 09:12:57;;;;;;;2.50;1.10;;;;;;;19.37;58.94;97768.09;5061779;28;20289;-73
2022/11/01 09:15:22;;;;;;;1.00;0.83;;;;;;;19.37;58.79;97770.75;5059599;28;20476;-73
2022/11/01 09:17:48;;;;;;;2.93;0.80;;;;;;;19.28;58.68;97775.41;5065014;28;20456;-73
2022/11/01 09:20:14;;;;;;;1.00;0.83;;;;;;;19.35;58.84;97786.06;5058431;28;20187;-73
2022/11/01 09:22:39;;;;;;;3.37;1.00;;;;;;;19.40;58.66;97783.66;5063077;28;20185;-71
2022/11/01 09:25:05;;;;;;;1.73;0.80;;;;;;;19.45;58.87;97789.22;5060143;28;20524;-73
2022/11/01 09:27:31;;;;;;;1.20;0.90;;;;;;;19.47;58.57;97779.22;5069190;28;20218;-73
2022/11/01 09:29:56;;;;;;;1.80;0.90;;;;;;;19.53;58.55;97779.44;5054645;28;20187;-74
2022/11/01 09:32:22;;;;;;;3.77;1.10;;;;;;;19.58;58.46;97783.16;5060003;28;20362;-73
2022/11/01 09:34:50;;;;;;;1.50;1.20;;;;;;;19.67;58.25;97781.13;5064313;28;20198;-73
2022/11/01 09:37:16;;;;;;;2.13;1.60;;;;;;;19.82;58.04;97785.50;5056244;28;20183;-74
2022/11/01 09:39:41;;;;;;;5.00;2.70;;;;;;;20.05;57.47;97786.03;5068044;28;20804;-75
2022/11/01 09:42:23;;;;;;;2.27;1.40;;;;;;;20.34;57.46;97786.75;5054203;28;20187;-72
2022/11/01 09:44:51;;;;;;;2.03;1.00;;;;;;;20.57;56.19;97788.22;5067308;28;20186;-74
2022/11/01 09:47:19;;;;;;;5.30;0.90;;;;;;;21.15;55.83;97781.53;5045105;28;20422;-75
2022/11/01 09:49:47;;;;;;;1.20;0.80;;;;;;;21.78;53.85;97772.19;5037575;28;20428;-73
2022/11/01 09:52:21;;;;;;;1.67;1.30;;;;;;;22.31;51.02;97772.97;5039455;28;20848;-75
2022/11/01 09:54:47;;;;;;;6.77;1.60;;;;;;;22.90;50.69;97778.97;5042042;28;20473;-72
2022/11/01 09:57:35;;;;;;;1.43;1.00;;;;;;;23.31;48.52;97776.81;5022987;28;20436;-75
2022/11/01 10:00:17;;;;;;;1.10;0.80;;;;;;;23.62;47.57;97767.00;5057485;28;20474;-74
2022/11/01 10:03:12;;;;;;;2.23;0.90;;;;;;;23.78;45.93;97776.28;5035796;28;21221;-73
2022/11/01 10:05:44;;;;;;;2.13;1.10;;;;;;;24.02;45.82;97773.75;5053532;28;20444;-74
2022/11/01 10:08:26;;;;;;;1.43;0.70;;;;;;;23.83;44.71;97779.13;5054557;28;20438;-74
2022/11/01 10:11:10;;;;;;;4.03;0.80;;;;;;;23.78;44.57;97771.78;5065514;28;20925;-75
2022/11/01 10:13:47;;;;;;;1.00;0.80;;;;;;;23.62;44.76;97777.72;5042305;28;20864;-74
2022/11/01 10:16:29;;;;;;;0.90;0.60;;;;;;;23.49;44.63;97780.53;5048087;28;20449;-73
2022/11/01 10:19:03;;;;;;;3.00;1.20;;;;;;;23.38;45.38;97782.91;5052985;28;20437;-74
2022/11/01 10:21:33;;;;;;;1.20;0.73;;;;;;;23.27;45.95;97786.31;5053929;28;20429;-73
2022/11/01 10:23:59;;;;;;;1.80;0.97;;;;;;;23.23;45.75;97782.41;5037217;28;20454;-73
2022/11/01 10:26:27;;;;;;;3.17;0.80;;;;;;;23.11;45.74;97783.13;5045510;28;20467;-72
2022/11/01 10:29:06;;;;;;;3.47;0.83;;;;;;;23.15;45.96;97789.66;5050762;28;20429;-74
2022/11/01 10:31:36;;;;;;;1.57;0.80;;;;;;;23.14;45.62;97787.19;5035393;28;20419;-74
2022/11/01 10:34:09;;;;;;;2.80;0.90;;;;;;;23.10;45.77;97797.50;5041025;28;20536;-72
2022/11/01 10:36:37;;;;;;;1.30;1.00;;;;;;;23.12;45.77;97798.13;5069626;28;20437;-74
2022/11/01 10:39:20;;;;;;;1.87;0.80;;;;;;;23.07;45.86;97795.28;5050867;28;20500;-75
2022/11/01 10:41:52;;;;;;;2.93;0.90;;;;;;;23.08;45.60;97786.22;5045296;28;20435;-74
2022/11/01 10:44:30;;;;;;;2.77;0.97;;;;;;;23.00;46.17;97787.31;5044100;28;20426;-74
2022/11/01 10:46:57;;;;;;;2.80;1.10;;;;;;;22.99;46.24;97793.72;5040314;28;20434;-75
2022/11/01 10:49:30;;;;;;;3.73;1.10;;;;;;;23.01;46.61;97798.84;5045177;28;20426;-74
2022/11/01 10:51:59;;;;;;;1.07;0.80;;;;;;;22.98;46.12;97799.25;5051192;28;20430;-73
2022/11/01 10:54:27;;;;;;;3.10;1.00;;;;;;;22.64;46.25;97796.03;5038519;28;20966;-73
2022/11/01 10:56:54;;;;;;;3.20;1.30;;;;;;;22.72;45.80;97803.75;5044996;28;20450;-72
2022/11/01 10:59:28;;;;;;;2.90;1.03;;;;;;;22.70;46.23;97803.16;5046395;28;20441;-73
2022/11/01 11:01:54;;;;;;;2.23;1.00;;;;;;;22.72;46.08;97805.63;5029578;28;20429;-74
2022/11/01 11:04:22;;;;;;;1.77;0.80;;;;;;;22.68;46.15;97805.25;5044144;28;20513;-73
2022/11/01 11:06:48;;;;;;;1.57;0.80;;;;;;;22.55;45.69;97806.97;5069272;28;20475;-73
2022/11/01 11:09:33;;;;;;;1.00;0.90;;;;;;;22.39;46.02;97794.91;5049171;28;20429;-72
2022/11/01 11:12:05;;;;;;;2.63;0.80;;;;;;;22.37;46.11;97798.81;5059363;28;20425;-71
2022/11/01 11:14:32;;;;;;;1.43;0.90;;;;;;;22.44;45.61;97798.81;5043063;28;20430;-71
2022/11/01 11:16:59;;;;;;;3.40;0.90;;;;;;;22.40;45.29;97798.41;5050766;28;20476;-71
2022/11/01 11:19:34;;;;;;;3.00;1.00;;;;;;;22.38;45.50;97798.59;5046282;28;20947;-71
2022/11/01 11:22:01;;;;;;;2.90;1.60;;;;;;;22.32;45.21;97801.31;5054999;28;20420;-72
2022/11/01 11:24:34;;;;;;;1.67;1.10;;;;;;;22.28;45.46;97800.91;5051763;28;20485;-71
2022/11/01 11:27:01;;;;;;;2.90;1.00;;;;;;;22.46;45.38;97800.22;5055140;28;20440;-71
2022/11/01 11:29:34;;;;;;;1.87;1.30;;;;;;;22.65;44.98;97805.69;5050977;28;20989;-73
2022/11/01 11:32:01;;;;;;;2.30;1.40;;;;;;;22.77;45.01;97805.78;5042932;28;20824;-73
2022/11/01 11:34:33;;;;;;;3.00;1.60;;;;;;;22.90;45.05;97800.34;5053736;28;20439;-72
2022/11/01 11:36:59;;;;;;;5.47;1.27;;;;;;;22.94;44.61;97798.03;5044021;28;20504;-72
2022/11/01 11:39:25;;;;;;;2.23;1.10;;;;;;;22.81;44.13;97805.13;5058597;28;20440;-72
2022/11/01 11:41:50;;;;;;;1.63;1.07;;;;;;;22.81;43.93;97801.66;5044594;28;20437;-73
2022/11/01 11:44:43;;;;;;;3.20;1.10;;;;;;;22.63;43.35;97803.19;5059321;28;20186;-71